createdAt,value
2022-10-28T00:01:21.452Z,9.2
2022-10-28T00:03:52.347Z,8.9
2022-10-28T00:06:22.933Z,8.7
2022-10-28T00:08:53.553Z,8.5
2022-10-28T00:11:27.369Z,8.4
2022-10-28T00:16:38.102Z,8.3
2022-10-28T00:19:08.680Z,8.4
2022-10-28T00:21:39.275Z,8.3
2022-10-28T00:24:09.871Z,8.3
2022-10-28T00:26:40.464Z,8.2
2022-10-28T00:29:21.054Z,8.1
2022-10-28T00:31:51.638Z,8.1
2022-10-28T00:34:22.238Z,8.0
2022-10-28T00:36:52.832Z,8.1
2022-10-28T00:39:23.427Z,8.1
2022-10-28T00:41:54.026Z,8.2
2022-10-28T00:44:34.634Z,8.2
2022-10-28T00:47:05.257Z,8.1
2022-10-28T00:49:35.843Z,8.2
2022-10-28T00:52:06.413Z,8.2
2022-10-28T00:57:17.222Z,8.0
2022-10-28T00:59:47.839Z,7.9
2022-10-28T01:02:18.493Z,7.8
2022-10-28T01:04:49.248Z,7.7
2022-10-28T01:07:19.824Z,7.7
2022-10-28T01:09:50.442Z,7.7
2022-10-28T01:12:31.050Z,7.8
2022-10-28T01:15:02.019Z,7.8
2022-10-28T01:17:32.590Z,7.8
2022-10-28T01:20:03.217Z,7.8
2022-10-28T01:22:33.840Z,7.7
2022-10-28T01:25:04.906Z,7.6
2022-10-28T01:27:45.496Z,7.6
2022-10-28T01:30:26.105Z,7.6
2022-10-28T01:32:56.920Z,7.5
2022-10-28T01:37:57.666Z,7.4
2022-10-28T01:40:28.254Z,7.4
2022-10-28T01:43:08.843Z,7.3
2022-10-28T01:45:39.438Z,7.2
2022-10-28T01:48:10.014Z,7.1
2022-10-28T01:50:40.662Z,7.0
2022-10-28T01:53:11.231Z,6.9
2022-10-28T01:55:41.834Z,7.0
2022-10-28T01:58:22.428Z,7.0
2022-10-28T02:00:53.086Z,7.1
2022-10-28T02:03:23.899Z,7.1
2022-10-28T02:05:54.496Z,7.1
2022-10-28T02:08:25.094Z,7.4
2022-10-28T02:11:05.720Z,7.5
2022-10-28T02:13:36.288Z,7.4
2022-10-28T02:18:37.035Z,7.3
2022-10-28T02:21:07.627Z,7.3
2022-10-28T02:23:38.227Z,7.3
2022-10-28T02:26:18.840Z,7.2
2022-10-28T02:28:49.418Z,7.2
2022-10-28T02:31:20.012Z,7.1
2022-10-28T02:33:50.604Z,7.2
2022-10-28T02:36:21.187Z,7.1
2022-10-28T02:38:51.763Z,7.1
2022-10-28T02:41:32.325Z,7.1
2022-10-28T02:44:02.916Z,7.0
2022-10-28T02:46:33.504Z,7.0
2022-10-28T02:49:04.105Z,7.0
2022-10-28T02:51:34.667Z,6.9
2022-10-28T02:54:05.251Z,6.8
2022-10-28T02:59:16.004Z,6.8
2022-10-28T03:01:46.716Z,6.8
2022-10-28T03:04:17.654Z,6.8
2022-10-28T03:06:48.236Z,6.8
2022-10-28T03:09:18.895Z,6.7
2022-10-28T03:11:59.519Z,6.8
2022-10-28T03:14:30.100Z,6.9
2022-10-28T03:17:00.683Z,7.1
2022-10-28T03:19:31.259Z,7.0
2022-10-28T03:22:01.864Z,6.9
2022-10-28T03:24:42.438Z,6.9
2022-10-28T03:27:13.029Z,7.0
2022-10-28T03:29:45.040Z,7.0
2022-10-28T03:32:16.741Z,7.0
2022-10-28T03:34:47.379Z,6.9
2022-10-28T03:39:58.173Z,7.0
2022-10-28T03:42:28.760Z,6.9
2022-10-28T03:45:02.211Z,6.8
2022-10-28T03:47:33.087Z,6.8
2022-10-28T03:50:04.059Z,6.8
2022-10-28T03:52:34.628Z,6.8
2022-10-28T03:55:15.214Z,6.8
2022-10-28T03:57:45.816Z,6.8
2022-10-28T04:00:17.157Z,6.7
2022-10-28T04:02:47.742Z,6.6
2022-10-28T04:05:18.318Z,6.6
2022-10-28T04:07:48.914Z,6.5
2022-10-28T04:10:29.528Z,6.5
2022-10-28T04:13:05.326Z,6.6
2022-10-28T04:15:35.924Z,6.7
2022-10-28T04:20:36.641Z,6.7
2022-10-28T04:23:07.245Z,6.6
2022-10-28T04:25:47.868Z,6.6
2022-10-28T04:28:18.437Z,6.6
2022-10-28T04:30:49.024Z,6.6
2022-10-28T04:33:19.628Z,6.6
2022-10-28T04:35:50.223Z,6.6
2022-10-28T04:38:30.814Z,6.6
2022-10-28T04:41:01.402Z,6.5
2022-10-28T04:46:02.148Z,6.7
2022-10-28T04:48:32.730Z,6.6
2022-10-28T04:51:03.306Z,6.5
2022-10-28T04:53:43.881Z,6.4
2022-10-28T04:56:14.496Z,6.4
2022-10-28T05:01:15.317Z,6.4
2022-10-28T05:03:46.278Z,6.4
2022-10-28T05:06:16.875Z,6.3
2022-10-28T05:08:57.467Z,6.2
2022-10-28T05:11:28.063Z,6.2
2022-10-28T05:16:28.803Z,6.2
2022-10-28T05:18:59.389Z,6.1
2022-10-28T05:21:39.978Z,6.1
2022-10-28T05:24:10.554Z,6.1
2022-10-28T05:26:41.132Z,6.0
2022-10-28T05:29:11.725Z,6.1
2022-10-28T05:31:43.784Z,6.3
2022-10-28T05:34:15.425Z,6.3
2022-10-28T05:36:56.037Z,6.3
2022-10-28T05:41:56.769Z,6.2
2022-10-28T05:44:27.358Z,6.5
2022-10-28T05:46:57.969Z,6.4
2022-10-28T05:49:28.555Z,6.4
2022-10-28T05:52:09.142Z,6.3
2022-10-28T05:54:39.695Z,6.1
2022-10-28T05:57:10.314Z,5.9
2022-10-28T05:59:40.897Z,5.9
2022-10-28T06:02:11.459Z,5.9
2022-10-28T06:04:42.061Z,6.0
2022-10-28T06:07:22.667Z,6.0
2022-10-28T06:09:53.253Z,6.1
2022-10-28T06:12:22.372Z,6.4
2022-10-28T06:14:54.006Z,6.5
2022-10-28T06:17:24.601Z,6.5
2022-10-28T06:25:05.510Z,6.4
2022-10-28T06:27:36.113Z,6.5
2022-10-28T06:30:06.704Z,6.8
2022-10-28T06:32:37.309Z,6.8
2022-10-28T06:35:17.937Z,7.0
2022-10-28T06:37:48.526Z,7.1
2022-10-28T06:40:19.951Z,7.2
2022-10-28T06:42:50.867Z,7.2
2022-10-28T06:45:21.734Z,7.3
2022-10-28T06:47:53.843Z,7.4
2022-10-28T06:50:34.431Z,7.4
2022-10-28T06:53:04.984Z,7.6
2022-10-28T06:55:35.572Z,7.2
2022-10-28T06:58:06.168Z,7.1
2022-10-28T07:03:16.932Z,7.0
2022-10-28T07:05:57.539Z,7.2
2022-10-28T07:08:28.230Z,7.2
2022-10-28T07:10:58.844Z,7.3
2022-10-28T07:15:59.585Z,7.6
2022-10-28T07:18:30.140Z,8.0
2022-10-28T07:21:10.774Z,8.3
2022-10-28T07:23:41.356Z,8.5
2022-10-28T07:26:11.941Z,8.7
2022-10-28T07:28:42.492Z,8.7
2022-10-28T07:31:13.091Z,8.8
2022-10-28T07:33:53.690Z,8.8
2022-10-28T07:36:24.300Z,8.9
2022-10-28T07:38:54.870Z,8.9
2022-10-28T07:43:55.611Z,8.9
2022-10-28T07:46:26.218Z,8.9
2022-10-28T07:49:06.807Z,8.9
2022-10-28T07:51:37.388Z,9.0
2022-10-28T07:59:08.265Z,9.1
2022-10-28T08:01:39.679Z,9.1
2022-10-28T08:04:20.705Z,9.2
2022-10-28T08:06:51.474Z,9.2
2022-10-28T08:09:22.254Z,9.2
2022-10-28T08:14:23.001Z,9.2
2022-10-28T08:17:03.602Z,9.2
2022-10-28T08:19:34.166Z,9.2
2022-10-28T08:24:34.940Z,9.3
2022-10-28T08:27:05.544Z,9.3
2022-10-28T08:29:36.139Z,9.4
2022-10-28T08:32:16.741Z,9.4
2022-10-28T08:34:47.345Z,9.4
2022-10-28T08:37:17.976Z,9.4
2022-10-28T08:39:48.649Z,9.4
2022-10-28T08:42:19.255Z,9.5
2022-10-28T08:44:49.874Z,9.5
2022-10-28T08:47:35.695Z,9.6
2022-10-28T08:55:07.385Z,10.0
2022-10-28T08:57:37.976Z,10.0
2022-10-28T09:00:08.567Z,10.1
2022-10-28T09:05:19.317Z,10.4
2022-10-28T09:07:49.868Z,10.4
2022-10-28T09:10:20.490Z,10.4
2022-10-28T09:12:51.412Z,10.4
2022-10-28T09:15:32.263Z,10.4
2022-10-28T09:18:02.856Z,10.4
2022-10-28T09:20:33.452Z,10.5
2022-10-28T09:23:04.041Z,10.7
2022-10-28T09:25:34.659Z,10.8
2022-10-28T09:28:05.245Z,10.9
2022-10-28T09:30:45.863Z,11.0
2022-10-28T09:33:16.462Z,11.0
2022-10-28T09:35:47.097Z,11.1
2022-10-28T09:38:17.691Z,11.2
2022-10-28T09:40:48.274Z,11.3
2022-10-28T09:45:59.033Z,11.6
2022-10-28T09:48:29.634Z,11.6
2022-10-28T09:51:00.241Z,11.6
2022-10-28T09:53:35.137Z,11.8
2022-10-28T09:58:37.195Z,12.0
2022-10-28T10:01:17.857Z,12.1
2022-10-28T10:03:48.696Z,12.1
2022-10-28T10:06:19.309Z,12.1
2022-10-28T10:08:49.895Z,12.2
2022-10-28T10:11:20.507Z,12.3
2022-10-28T10:14:01.142Z,12.3
2022-10-28T10:16:31.751Z,12.3
2022-10-28T10:19:02.320Z,12.4
2022-10-28T10:21:32.987Z,12.5
2022-10-28T10:26:33.758Z,12.7
2022-10-28T10:29:14.388Z,12.7
2022-10-28T10:31:44.977Z,12.8
2022-10-28T10:34:15.587Z,12.9
2022-10-28T10:36:46.207Z,13.0
2022-10-28T10:39:16.937Z,13.2
2022-10-28T10:41:47.539Z,13.3
2022-10-28T10:44:28.134Z,13.3
2022-10-28T10:47:00.639Z,13.4
2022-10-28T10:49:32.367Z,13.6
2022-10-28T10:52:02.970Z,13.7
2022-10-28T10:54:33.600Z,13.9
2022-10-28T10:57:04.216Z,14.0
2022-10-28T10:59:44.837Z,14.1
2022-10-28T11:02:15.536Z,14.2
2022-10-28T11:07:16.620Z,14.4
2022-10-28T11:09:47.206Z,14.5
2022-10-28T11:12:27.840Z,14.7
2022-10-28T11:14:59.843Z,15.0
2022-10-28T11:17:30.413Z,15.2
2022-10-28T11:20:01.098Z,15.3
2022-10-28T11:22:31.692Z,15.4
2022-10-28T11:25:02.734Z,15.6
2022-10-28T11:27:43.356Z,16.1
2022-10-28T11:30:07.922Z,16.2
2022-10-28T11:32:41.210Z,16.6
2022-10-28T11:35:10.250Z,16.7
2022-10-28T11:37:40.848Z,16.6
2022-10-28T11:40:11.454Z,16.5
2022-10-28T11:42:52.434Z,16.5
2022-10-28T11:47:53.683Z,16.7
2022-10-28T11:50:24.432Z,17.2
2022-10-28T11:52:55.019Z,17.5
2022-10-28T11:55:25.597Z,17.5
2022-10-28T11:58:06.235Z,17.4
2022-10-28T12:00:36.984Z,17.6
2022-10-28T12:03:07.642Z,17.8
2022-10-28T12:05:38.359Z,17.8
2022-10-28T12:08:08.937Z,17.8
2022-10-28T12:10:49.549Z,18.1
2022-10-28T12:13:30.308Z,18.4
2022-10-28T12:16:01.013Z,18.7
2022-10-28T12:18:31.567Z,18.9
2022-10-28T12:21:02.224Z,19.0
2022-10-28T12:23:33.083Z,19.0
2022-10-28T12:28:43.840Z,19.2
2022-10-28T12:31:14.449Z,19.2
2022-10-28T12:33:45.094Z,19.2
2022-10-28T12:36:15.739Z,19.3
2022-10-28T12:38:46.320Z,19.4
2022-10-28T12:41:26.951Z,19.4
2022-10-28T12:43:57.582Z,19.4
2022-10-28T12:46:28.182Z,19.4
2022-10-28T12:48:59.879Z,19.5
2022-10-28T12:51:30.480Z,19.4
2022-10-28T12:56:41.231Z,19.6
2022-10-28T12:59:11.822Z,19.6
2022-10-28T13:01:42.499Z,19.6
2022-10-28T13:04:13.539Z,19.6
2022-10-28T13:09:24.292Z,19.6
2022-10-28T13:11:49.442Z,19.6
2022-10-28T13:14:20.037Z,19.5
2022-10-28T13:16:50.618Z,19.3
2022-10-28T13:19:21.199Z,19.2
2022-10-28T13:24:31.957Z,19.0
2022-10-28T13:27:02.592Z,18.8
2022-10-28T13:29:33.314Z,18.8
2022-10-28T13:32:13.908Z,18.6
2022-10-28T13:34:38.764Z,18.8
2022-10-28T13:37:09.518Z,18.8
2022-10-28T13:39:50.135Z,18.8
2022-10-28T13:49:51.175Z,19.0
2022-10-28T13:55:01.923Z,19.2
2022-10-28T14:00:02.657Z,19.0
2022-10-28T14:02:35.421Z,19.0
2022-10-28T14:05:07.180Z,19.1
2022-10-28T14:07:47.774Z,19.0
2022-10-28T14:10:20.556Z,19.0
2022-10-28T14:12:51.553Z,19.0
2022-10-28T14:15:22.364Z,19.2
2022-10-28T14:17:53.186Z,19.4
2022-10-28T14:20:24.537Z,19.4
2022-10-28T14:23:05.107Z,19.6
2022-10-28T14:25:35.730Z,19.5
2022-10-28T14:30:36.471Z,19.3
2022-10-28T14:33:07.030Z,19.2
2022-10-28T14:35:47.645Z,19.0
2022-10-28T14:38:18.253Z,18.8
2022-10-28T14:40:48.880Z,18.6
2022-10-28T14:43:19.463Z,18.4
2022-10-28T14:45:51.239Z,18.2
2022-10-28T14:48:21.848Z,18.0
2022-10-28T14:51:02.478Z,18.0
2022-10-28T14:53:33.063Z,17.8
2022-10-28T14:56:03.647Z,17.7
2022-10-28T14:58:34.275Z,17.7
2022-10-28T15:01:04.930Z,17.6
2022-10-28T15:03:35.957Z,17.4
2022-10-28T15:06:16.551Z,17.2
2022-10-28T15:11:17.294Z,16.8
2022-10-28T15:13:47.886Z,16.7
2022-10-28T15:16:18.488Z,16.6
2022-10-28T15:18:49.075Z,16.6
2022-10-28T15:21:29.671Z,16.5
2022-10-28T15:24:00.284Z,16.4
2022-10-28T15:26:30.943Z,16.4
2022-10-28T15:29:01.552Z,16.3
2022-10-28T15:31:32.133Z,16.2
2022-10-28T15:34:02.728Z,16.2
2022-10-28T15:36:43.407Z,16.1
2022-10-28T15:39:14.428Z,16.2
2022-10-28T15:41:45.021Z,16.2
2022-10-28T15:44:15.605Z,16.2
2022-10-28T15:46:46.211Z,16.1
2022-10-28T15:51:56.970Z,16.0
2022-10-28T15:54:27.554Z,15.7
2022-10-28T15:56:58.142Z,15.6
2022-10-28T15:59:28.713Z,15.4
2022-10-28T16:01:59.506Z,15.4
2022-10-28T16:04:40.565Z,15.2
2022-10-28T16:09:41.293Z,14.8
2022-10-28T16:12:12.043Z,14.5
2022-10-28T16:14:52.655Z,14.3
2022-10-28T16:17:23.234Z,14.1
2022-10-28T16:20:03.940Z,14.0
2022-10-28T16:22:29.279Z,13.9
2022-10-28T16:24:59.862Z,13.7
2022-10-28T16:27:30.488Z,13.6
2022-10-28T16:32:32.695Z,13.3
2022-10-28T16:35:16.003Z,13.2
2022-10-28T16:37:49.456Z,13.1
2022-10-28T16:40:25.142Z,13.0
2022-10-28T16:42:42.620Z,13.2
2022-10-28T16:45:13.770Z,13.2
2022-10-28T16:47:44.360Z,13.4
2022-10-28T16:50:25.381Z,13.6
2022-10-28T16:52:55.970Z,13.8
2022-10-28T16:55:26.556Z,13.8
2022-10-28T16:57:57.644Z,13.8
2022-10-28T17:00:33.488Z,13.5
2022-10-28T17:03:14.158Z,13.4
2022-10-28T17:05:44.761Z,13.2
2022-10-28T17:08:15.335Z,12.6
2022-10-28T17:13:13.899Z,12.4
2022-10-28T17:15:44.513Z,12.1
2022-10-28T17:18:25.102Z,12.1
2022-10-28T17:20:55.674Z,12.2
2022-10-28T17:23:26.283Z,12.2
2022-10-28T17:25:56.995Z,12.3
2022-10-28T17:28:27.594Z,12.2
2022-10-28T17:30:58.182Z,12.3
2022-10-28T17:33:42.505Z,12.3
2022-10-28T17:36:13.104Z,12.4
2022-10-28T17:38:43.781Z,12.4
2022-10-28T17:41:14.393Z,12.4
2022-10-28T17:43:44.955Z,12.4
2022-10-28T17:46:15.548Z,12.3
2022-10-28T17:48:56.151Z,12.4
2022-10-28T17:53:56.907Z,12.2
2022-10-28T17:56:27.597Z,12.2
2022-10-28T17:58:58.170Z,12.2
2022-10-28T18:01:28.881Z,12.2
2022-10-28T18:04:09.882Z,12.2
2022-10-28T18:06:40.484Z,12.2
2022-10-28T18:09:11.074Z,12.0
2022-10-28T18:11:41.680Z,12.0
2022-10-28T18:14:12.405Z,12.1
2022-10-28T18:16:53.004Z,12.1
2022-10-28T18:19:23.576Z,12.2
2022-10-28T18:21:54.155Z,12.4
2022-10-28T18:24:25.949Z,12.5
2022-10-28T18:26:56.753Z,12.8
2022-10-28T18:29:27.342Z,12.9
2022-10-28T18:34:38.182Z,13.1
2022-10-28T18:37:09.039Z,13.1
2022-10-28T18:39:39.634Z,13.1
2022-10-28T18:42:11.986Z,13.1
2022-10-28T18:44:43.099Z,13.0
2022-10-28T18:47:23.690Z,13.0
2022-10-28T18:49:54.295Z,13.0
2022-10-28T18:52:24.880Z,13.0
2022-10-28T18:54:55.474Z,12.9
2022-10-28T18:57:26.086Z,13.0
2022-10-28T19:00:17.205Z,13.0
2022-10-28T19:02:41.048Z,12.9
2022-10-28T19:05:14.971Z,12.8
2022-10-28T19:07:45.553Z,12.8
2022-10-28T19:10:06.654Z,12.8
2022-10-28T19:15:17.440Z,12.7
2022-10-28T19:17:58.260Z,12.8
2022-10-28T19:20:19.771Z,12.7
2022-10-28T19:23:00.447Z,12.7
2022-10-28T19:25:31.140Z,12.6
2022-10-28T19:28:01.752Z,12.5
2022-10-28T19:30:42.361Z,12.4
2022-10-28T19:33:12.948Z,12.3
2022-10-28T19:35:43.536Z,12.2
2022-10-28T19:38:14.128Z,12.2
2022-10-28T19:40:44.755Z,12.1
2022-10-28T19:43:15.340Z,12.0
2022-10-28T19:45:55.939Z,12.0
2022-10-28T19:48:26.525Z,12.0
2022-10-28T19:50:57.163Z,12.0
2022-10-28T19:55:57.963Z,12.0
2022-10-28T20:01:08.850Z,11.8
2022-10-28T20:03:40.450Z,11.6
2022-10-28T20:06:12.419Z,11.5
2022-10-28T20:08:43.008Z,11.5
2022-10-28T20:11:13.642Z,11.4
2022-10-28T20:13:36.991Z,11.6
2022-10-28T20:16:17.814Z,11.8
2022-10-28T20:18:48.408Z,11.7
2022-10-28T20:21:18.981Z,11.8
2022-10-28T20:26:20.143Z,11.4
2022-10-28T20:28:50.731Z,11.3
2022-10-28T20:31:41.313Z,11.0
2022-10-28T20:36:42.059Z,10.9
2022-10-28T20:39:12.666Z,10.9
2022-10-28T20:41:43.256Z,10.8
2022-10-28T20:44:23.834Z,10.7
2022-10-28T20:46:54.400Z,10.6
2022-10-28T20:49:24.979Z,10.5
2022-10-28T20:51:55.607Z,10.4
2022-10-28T20:54:26.254Z,10.6
2022-10-28T20:56:56.876Z,10.5
2022-10-28T20:59:37.478Z,10.8
2022-10-28T21:02:08.241Z,10.7
2022-10-28T21:04:39.373Z,10.7
2022-10-28T21:07:09.990Z,10.6
2022-10-28T21:09:40.583Z,10.4
2022-10-28T21:12:11.168Z,10.4
2022-10-28T21:17:21.920Z,10.1
2022-10-28T21:19:52.560Z,10.0
2022-10-28T21:22:23.157Z,10.0
2022-10-28T21:24:53.740Z,10.1
2022-10-28T21:27:24.346Z,10.2
2022-10-28T21:30:04.980Z,10.0
2022-10-28T21:32:35.797Z,10.2
2022-10-28T21:35:06.740Z,10.0
2022-10-28T21:37:37.325Z,9.9
2022-10-28T21:40:08.585Z,10.3
2022-10-28T21:42:39.196Z,10.2
2022-10-28T21:45:19.770Z,10.1
2022-10-28T21:47:50.503Z,10.2
2022-10-28T21:50:21.124Z,10.2
2022-10-28T21:52:51.749Z,10.1
2022-10-28T21:58:02.561Z,10.1
2022-10-28T22:00:33.162Z,10.2
2022-10-28T22:03:03.750Z,10.2
2022-10-28T22:05:34.340Z,10.1
2022-10-28T22:08:05.158Z,9.9
2022-10-28T22:10:35.960Z,9.8
2022-10-28T22:13:16.568Z,9.7
2022-10-28T22:15:47.187Z,9.6
2022-10-28T22:18:17.762Z,9.5
2022-10-28T22:20:48.356Z,9.5
2022-10-28T22:23:18.930Z,9.5
2022-10-28T22:25:49.551Z,9.4
2022-10-28T22:28:30.155Z,9.4
2022-10-28T22:31:00.738Z,9.4
2022-10-28T22:33:31.374Z,9.3
2022-10-28T22:38:32.250Z,9.1
2022-10-28T22:41:02.834Z,9.0
2022-10-28T22:43:43.413Z,8.9
2022-10-28T22:46:13.998Z,8.9
2022-10-28T22:51:14.741Z,8.8
2022-10-28T22:53:45.332Z,8.8
2022-10-28T22:56:25.944Z,8.7
2022-10-28T22:58:56.534Z,8.6
2022-10-28T23:01:27.232Z,8.5
2022-10-28T23:03:58.716Z,8.6
2022-10-28T23:06:29.329Z,8.5
2022-10-28T23:09:00.321Z,8.4
2022-10-28T23:11:40.980Z,8.4
2022-10-28T23:14:11.574Z,8.4
2022-10-28T23:19:22.327Z,8.3
2022-10-28T23:21:52.925Z,8.2
2022-10-28T23:24:23.526Z,8.3
2022-10-28T23:27:04.141Z,8.3
2022-10-28T23:29:34.743Z,8.3
2022-10-28T23:32:05.321Z,8.3
2022-10-28T23:34:35.894Z,8.2
2022-10-28T23:37:06.480Z,8.2
2022-10-28T23:39:37.110Z,8.2
2022-10-28T23:42:17.840Z,8.1
2022-10-28T23:44:48.417Z,8.3
2022-10-28T23:47:18.996Z,8.5
2022-10-28T23:49:49.583Z,8.4
2022-10-28T23:52:20.161Z,8.4
2022-10-28T23:55:00.809Z,8.4
